Hlavní strana
METAR-TAF:

METAR-TAF

Letiště :

Letiště Charlese de Gaulla

Paříž-Charlese de Gaulla, Francie

zeměpisná šířka: 49-01N, zeměpisná délka: 002-32E, výška: 118 m

Aktuální stav počasí

Zpráva byla vytvořena před 25 minutami, v 04:30 UTC
Severoseverovýchodní vítr 10 kt, proměnlivý mezi severním a jihojihovýchodním
Teplota 11°C
Vlhkost vzduchu 94%
Tlak 1020 hPa
Viditelnost: 6000 m

METAR: LFPG 180430Z 02010KT 360V160 6000 NSC 11/10 Q1020 NOSIG

Čas: 06:55 (04:55 UTC)

Předpověď počasí

Zpráva byla vytvořena před 4 hodinami a 59 minutami, v 23:56 UTC
Předpověď platná od 18 v 00 UTC do 19 v 06 UTC
Severoseverovýchodní vítr 12 kt
Viditelnost: 9000 m
Pravděpodobnost 30% :
Dočasný
od 18 v 04 UTC do 18 v 08 UTC
Viditelnost: 4500 m
kouřmo
Pravděpodobnost 30%
od 19 v 03 UTC do 19 v 06 UTC
Viditelnost: 3000 m
kouřmo

TAF: LFPG 172356Z 1800/1906 02012KT 9000 NSC TX20/1814Z TN10/1906Z PROB30 TEMPO 1804/1808 4500 BR PROB30 1903/1906 3000 BR

Stav a předpovědi počasí z více než 4 000 letišť (zprávy METAR a TAF).

Červené a žluté tečky na mapě představují dostupné meteorologické stanice.

Když kurzor umístíte na tečku, zobrazí se název stanice.

Pak kliknutím zobrazíte stav a předpověď počasí.

Chcete-li změnit mapu, kliknutím na zelené tlačítko se znaménkem +mapu přiblížíte, kliknutím na zelené tlačítko se znaménkem – mapu oddálíte a kliknutím na zelené šipky přejdete na sousední mapy.


METAR-TAF: